Time,TemperatureF,DewpointF,PressureIn,WindDirection,WindDirectionDegrees,WindSpeedMPH,WindSpeedGustMPH,Humidity,HourlyPrecipIn,Conditions,Clouds,dailyrainin,SoftwareType,DateUTC
2013-02-14 00:00:00,41.7,37.8,29.81,ESE,107,0.0,2.0,86,0.00,RA,FEW,0.00,WeatherDisplay:10.37,2013-02-13 23:00:00,
2013-02-14 00:30:00,41.7,37.5,29.82,NE,56,6.0,12.0,85,0.00,CLR,FEW,0.00,WeatherDisplay:10.37,2013-02-13 23:30:00,
2013-02-14 01:00:00,40.1,36.3,29.83,ENE,59,3.0,14.0,86,0.00,CLR,FEW,0.00,WeatherDisplay:10.37,2013-02-14 00:00:00,
2013-02-14 01:30:00,39.8,36.5,29.83,ENE,66,5.0,15.0,88,0.00,CLR,FEW,0.00,WeatherDisplay:10.37,2013-02-14 00:30:00,
2013-02-14 02:00:00,40.1,36.5,29.83,NE,55,0.0,10.0,87,0.00,CLR,FEW,0.00,WeatherDisplay:10.37,2013-02-14 01:00:00,
2013-02-14 02:30:00,40.3,36.4,29.84,East,81,1.0,10.0,86,0.00,CLR,FEW,0.00,WeatherDisplay:10.37,2013-02-14 01:30:00,
2013-02-14 03:00:00,40.0,36.2,29.83,ESE,118,1.0,9.0,86,0.00,CLR,FEW,0.00,WeatherDisplay:10.37,2013-02-14 02:00:00,
2013-02-14 04:00:00,39.0,35.5,29.84,East,99,8.0,20.0,87,0.00,CLR,FEW,0.00,WeatherDisplay:10.37,2013-02-14 03:00:00,
2013-02-14 04:30:00,39.0,35.2,29.83,East,83,7.0,18.0,86,0.00,CLR,FEW,0.00,WeatherDisplay:10.37,2013-02-14 03:30:00,
2013-02-14 05:00:00,39.0,34.9,29.84,East,99,10.0,20.0,85,0.00,CLR,FEW,0.00,WeatherDisplay:10.37,2013-02-14 04:00:00,
2013-02-14 05:30:00,39.5,34.5,29.85,East,83,10.0,22.0,82,0.00,CLR,FEW,0.00,WeatherDisplay:10.37,2013-02-14 04:30:00,
2013-02-14 06:00:00,40.0,34.3,29.85,East,85,9.0,24.0,80,0.00,CLR,FEW,0.00,WeatherDisplay:10.37,2013-02-14 05:00:00,
2013-02-14 06:30:00,39.4,33.4,29.85,ENE,71,10.0,23.0,79,0.00,CLR,FEW,0.00,WeatherDisplay:10.37,2013-02-14 05:30:00,
2013-02-14 07:00:00,39.2,33.3,29.86,ENE,70,8.0,21.0,79,0.00,CLR,FEW,0.00,WeatherDisplay:10.37,2013-02-14 06:00:00,
2013-02-14 07:30:00,39.4,33.4,29.87,East,94,8.0,21.0,79,0.00,CLR,FEW,0.00,WeatherDisplay:10.37,2013-02-14 06:30:00,
2013-02-14 08:00:00,39.5,33.5,29.88,East,86,9.0,20.0,79,0.00,CLR,FEW,0.00,WeatherDisplay:10.37,2013-02-14 07:00:00,
2013-02-14 08:30:00,39.9,34.2,29.89,East,82,6.0,24.0,80,0.00,CLR,FEW,0.00,WeatherDisplay:10.37,2013-02-14 07:30:00,
2013-02-14 09:00:00,41.9,35.3,29.90,East,85,5.0,23.0,77,0.00,CLR,FEW,0.00,WeatherDisplay:10.37,2013-02-14 08:00:00,
2013-02-14 09:30:00,41.5,35.5,29.90,ENE,71,10.0,22.0,79,0.00,CLR,FEW,0.00,WeatherDisplay:10.37,2013-02-14 08:30:00,
2013-02-14 10:00:00,42.4,35.7,29.90,ENE,68,12.0,20.0,77,0.00,CLR,FEW,0.00,WeatherDisplay:10.37,2013-02-14 09:00:00,
2013-02-14 10:30:00,43.2,36.2,29.90,ENE,69,16.0,24.0,76,0.00,,FEW,0.00,WeatherDisplay:10.37,2013-02-14 09:30:00,
2013-02-14 11:00:00,44.6,37.5,29.91,ENE,66,9.0,22.0,76,0.00,CLR,FEW,0.00,WeatherDisplay:10.37,2013-02-14 10:00:00,
2013-02-14 11:30:00,45.8,37.6,29.91,ENE,73,8.0,23.0,73,0.00,CLR,FEW,0.00,WeatherDisplay:10.37,2013-02-14 10:30:00,
2013-02-14 12:00:00,45.7,36.5,29.91,ENE,63,3.0,23.0,70,0.00,CLR,FEW,0.00,WeatherDisplay:10.37,2013-02-14 11:00:00,
2013-02-14 12:30:00,46.6,37.7,29.91,East,81,8.0,18.0,71,0.00,CLR,FEW,0.00,WeatherDisplay:10.37,2013-02-14 11:30:00,
2013-02-14 13:00:00,46.8,37.2,29.91,East,96,2.0,22.0,69,0.00,CLR,FEW,0.00,WeatherDisplay:10.37,2013-02-14 12:00:00,
2013-02-14 13:30:00,47.2,38.3,29.91,East,95,7.0,20.0,71,0.00,CLR,FEW,0.00,WeatherDisplay:10.37,2013-02-14 12:30:00,
2013-02-14 14:00:00,48.0,38.3,29.91,East,81,5.0,16.0,69,0.00,CLR,FEW,0.00,WeatherDisplay:10.37,2013-02-14 13:00:00,
2013-02-14 14:30:00,48.2,38.1,29.91,East,82,9.0,16.0,68,0.00,CLR,FEW,0.00,WeatherDisplay:10.37,2013-02-14 13:30:00,
2013-02-14 15:00:00,48.2,38.1,29.91,NE,46,5.0,13.0,68,0.00,CLR,FEW,0.00,WeatherDisplay:10.37,2013-02-14 14:00:00,
2013-02-14 15:30:00,47.6,38.3,29.92,East,81,7.0,15.0,70,0.00,CLR,FEW,0.00,WeatherDisplay:10.37,2013-02-14 14:30:00,
2013-02-14 16:00:00,47.3,37.3,29.92,East,85,3.0,14.0,68,0.00,CLR,FEW,0.00,WeatherDisplay:10.37,2013-02-14 15:00:00,
2013-02-14 16:30:00,46.2,37.3,29.92,East,88,8.0,15.0,71,0.00,CLR,FEW,0.00,WeatherDisplay:10.37,2013-02-14 15:30:00,
2013-02-14 17:00:00,45.3,36.4,29.92,East,82,1.0,13.0,71,0.00,CLR,FEW,0.00,WeatherDisplay:10.37,2013-02-14 16:00:00,
2013-02-14 17:30:00,44.4,36.3,29.93,ENE,75,6.0,12.0,73,0.00,CLR,FEW,0.00,WeatherDisplay:10.37,2013-02-14 16:30:00,
2013-02-14 18:00:00,43.7,35.6,29.93,East,80,5.0,16.0,73,0.00,CLR,FEW,0.00,WeatherDisplay:10.37,2013-02-14 17:00:00,
2013-02-14 18:30:00,43.5,35.4,29.93,East,79,6.0,10.0,73,0.00,CLR,FEW,0.00,WeatherDisplay:10.37,2013-02-14 17:30:00,
2013-02-14 19:00:00,43.2,35.4,29.95,ENE,59,2.0,12.0,74,0.00,CLR,FEW,0.00,WeatherDisplay:10.37,2013-02-14 18:00:00,
2013-02-14 19:30:00,42.6,35.6,29.95,NE,54,0.0,8.0,76,0.00,CLR,FEW,0.00,WeatherDisplay:10.37,2013-02-14 18:30:00,
2013-02-14 20:00:00,40.1,34.1,29.95,East,82,0.0,5.0,79,0.00,CLR,FEW,0.00,WeatherDisplay:10.37,2013-02-14 19:00:00,
2013-02-14 20:30:00,38.0,33.3,29.95,East,82,0.0,0.0,83,0.00,CLR,FEW,0.00,WeatherDisplay:10.37,2013-02-14 19:30:00,
2013-02-14 21:00:00,38.8,33.8,29.97,East,82,0.0,3.0,82,0.00,CLR,FEW,0.00,WeatherDisplay:10.37,2013-02-14 20:00:00,
2013-02-14 21:30:00,38.2,33.5,29.97,East,82,2.0,5.0,83,0.00,CLR,FEW,0.00,WeatherDisplay:10.37,2013-02-14 20:30:00,
2013-02-14 22:00:00,38.7,34.0,29.98,East,82,0.0,5.0,83,0.00,CLR,FEW,0.00,WeatherDisplay:10.37,2013-02-14 21:00:00,
2013-02-14 22:30:00,40.2,34.5,29.97,NE,36,3.0,8.0,80,0.00,CLR,FEW,0.00,WeatherDisplay:10.37,2013-02-14 21:30:00,
2013-02-14 23:00:00,41.2,34.2,29.97,NE,44,0.0,8.0,76,0.00,CLR,FEW,0.00,WeatherDisplay:10.37,2013-02-14 22:00:00,
2013-02-14 23:30:00,38.8,32.8,29.97,NE,49,0.0,2.0,79,0.00,CLR,FEW,0.00,WeatherDisplay:10.37,2013-02-14 22:30:00,